sensor_id;sensor_type;location;lat;lon;timestamp;temperature;humidity
26342;DHT22;14054;50.108;8.640;2023-04-25T00:02:07;8.60;99.90
26342;DHT22;14054;50.108;8.640;2023-04-25T00:04:33;8.40;99.90
26342;DHT22;14054;50.108;8.640;2023-04-25T00:06:59;8.40;99.90
26342;DHT22;14054;50.108;8.640;2023-04-25T00:09:27;8.50;99.90
26342;DHT22;14054;50.108;8.640;2023-04-25T00:11:52;8.60;99.90
26342;DHT22;14054;50.108;8.640;2023-04-25T00:14:18;8.40;99.90
26342;DHT22;14054;50.108;8.640;2023-04-25T00:16:43;8.40;99.90
26342;DHT22;14054;50.108;8.640;2023-04-25T00:19:09;8.40;99.90
26342;DHT22;14054;50.108;8.640;2023-04-25T00:21:34;8.40;99.90
26342;DHT22;14054;50.108;8.640;2023-04-25T00:24:00;8.40;99.90
26342;DHT22;14054;50.108;8.640;2023-04-25T00:26:26;8.50;99.90
26342;DHT22;14054;50.108;8.640;2023-04-25T00:28:52;8.30;99.90
26342;DHT22;14054;50.108;8.640;2023-04-25T00:31:17;8.40;99.90
26342;DHT22;14054;50.108;8.640;2023-04-25T00:33:43;8.40;99.90
26342;DHT22;14054;50.108;8.640;2023-04-25T00:36:08;8.30;99.90
26342;DHT22;14054;50.108;8.640;2023-04-25T00:38:34;8.40;99.90
26342;DHT22;14054;50.108;8.640;2023-04-25T00:40:59;8.40;99.90
26342;DHT22;14054;50.108;8.640;2023-04-25T00:43:26;8.40;99.90
26342;DHT22;14054;50.108;8.640;2023-04-25T00:45:51;8.30;99.90
26342;DHT22;14054;50.108;8.640;2023-04-25T00:48:17;8.40;99.90
26342;DHT22;14054;50.108;8.640;2023-04-25T00:50:44;8.40;99.90
26342;DHT22;14054;50.108;8.640;2023-04-25T00:53:13;8.40;99.90
26342;DHT22;14054;50.108;8.640;2023-04-25T00:55:38;8.40;99.90
26342;DHT22;14054;50.108;8.640;2023-04-25T00:58:04;8.40;99.90
26342;DHT22;14054;50.108;8.640;2023-04-25T01:00:29;8.40;99.90
26342;DHT22;14054;50.108;8.640;2023-04-25T01:02:55;8.40;99.90
26342;DHT22;14054;50.108;8.640;2023-04-25T01:05:20;8.40;99.90
26342;DHT22;14054;50.108;8.640;2023-04-25T01:07:46;8.40;99.90
26342;DHT22;14054;50.108;8.640;2023-04-25T01:10:12;8.40;99.90
26342;DHT22;14054;50.108;8.640;2023-04-25T01:12:38;8.40;99.90
26342;DHT22;14054;50.108;8.640;2023-04-25T01:15:03;8.40;99.90
26342;DHT22;14054;50.108;8.640;2023-04-25T01:17:29;8.40;99.90
26342;DHT22;14054;50.108;8.640;2023-04-25T01:19:54;8.40;99.90
26342;DHT22;14054;50.108;8.640;2023-04-25T01:22:20;8.40;99.90
26342;DHT22;14054;50.108;8.640;2023-04-25T01:24:46;8.30;99.90
26342;DHT22;14054;50.108;8.640;2023-04-25T01:27:11;8.30;99.90
26342;DHT22;14054;50.108;8.640;2023-04-25T01:29:37;8.40;99.90
26342;DHT22;14054;50.108;8.640;2023-04-25T01:32:02;8.40;99.90
26342;DHT22;14054;50.108;8.640;2023-04-25T01:34:28;8.30;99.90
26342;DHT22;14054;50.108;8.640;2023-04-25T01:36:54;8.30;99.90
26342;DHT22;14054;50.108;8.640;2023-04-25T01:39:19;8.30;99.90
26342;DHT22;14054;50.108;8.640;2023-04-25T01:41:45;8.20;99.90
26342;DHT22;14054;50.108;8.640;2023-04-25T01:44:11;8.30;99.90
26342;DHT22;14054;50.108;8.640;2023-04-25T01:46:36;8.40;99.90
26342;DHT22;14054;50.108;8.640;2023-04-25T01:49:02;8.20;99.90
26342;DHT22;14054;50.108;8.640;2023-04-25T01:51:28;8.30;99.90
26342;DHT22;14054;50.108;8.640;2023-04-25T01:53:53;8.20;99.90
26342;DHT22;14054;50.108;8.640;2023-04-25T01:56:19;8.20;99.90
26342;DHT22;14054;50.108;8.640;2023-04-25T01:58:45;8.20;99.90
26342;DHT22;14054;50.108;8.640;2023-04-25T02:01:11;8.20;99.90
26342;DHT22;14054;50.108;8.640;2023-04-25T02:03:36;8.20;99.90
26342;DHT22;14054;50.108;8.640;2023-04-25T02:06:02;8.20;99.90
26342;DHT22;14054;50.108;8.640;2023-04-25T02:08:27;8.30;99.90
26342;DHT22;14054;50.108;8.640;2023-04-25T02:10:53;8.30;99.90
26342;DHT22;14054;50.108;8.640;2023-04-25T02:13:18;8.30;99.90
26342;DHT22;14054;50.108;8.640;2023-04-25T02:15:44;8.30;99.90
26342;DHT22;14054;50.108;8.640;2023-04-25T02:18:09;8.20;99.90
26342;DHT22;14054;50.108;8.640;2023-04-25T02:20:35;8.20;99.90
26342;DHT22;14054;50.108;8.640;2023-04-25T02:23:01;8.30;99.90
26342;DHT22;14054;50.108;8.640;2023-04-25T02:25:27;8.30;99.90
26342;DHT22;14054;50.108;8.640;2023-04-25T02:27:52;8.20;99.90
26342;DHT22;14054;50.108;8.640;2023-04-25T02:30:18;8.20;99.90
26342;DHT22;14054;50.108;8.640;2023-04-25T02:32:43;8.20;99.90
26342;DHT22;14054;50.108;8.640;2023-04-25T02:35:09;8.30;99.90
26342;DHT22;14054;50.108;8.640;2023-04-25T02:37:35;8.20;99.90
26342;DHT22;14054;50.108;8.640;2023-04-25T02:40:01;8.10;99.90
26342;DHT22;14054;50.108;8.640;2023-04-25T02:42:26;8.20;99.90
26342;DHT22;14054;50.108;8.640;2023-04-25T02:44:52;8.20;99.90
26342;DHT22;14054;50.108;8.640;2023-04-25T02:47:17;8.20;99.90
26342;DHT22;14054;50.108;8.640;2023-04-25T02:49:42;8.20;99.90
26342;DHT22;14054;50.108;8.640;2023-04-25T02:52:08;8.20;99.90
26342;DHT22;14054;50.108;8.640;2023-04-25T02:54:34;8.20;99.90
26342;DHT22;14054;50.108;8.640;2023-04-25T02:56:59;8.10;99.90
26342;DHT22;14054;50.108;8.640;2023-04-25T02:59:25;8.20;99.90
26342;DHT22;14054;50.108;8.640;2023-04-25T03:01:50;8.20;99.90
26342;DHT22;14054;50.108;8.640;2023-04-25T03:04:16;8.20;99.90
26342;DHT22;14054;50.108;8.640;2023-04-25T03:06:41;8.20;99.90
26342;DHT22;14054;50.108;8.640;2023-04-25T03:09:07;8.20;99.90
26342;DHT22;14054;50.108;8.640;2023-04-25T03:11:32;8.10;99.90
26342;DHT22;14054;50.108;8.640;2023-04-25T03:13:58;8.20;99.90
26342;DHT22;14054;50.108;8.640;2023-04-25T03:16:23;8.20;99.90
26342;DHT22;14054;50.108;8.640;2023-04-25T03:18:49;8.10;99.90
26342;DHT22;14054;50.108;8.640;2023-04-25T03:21:16;8.20;99.90
26342;DHT22;14054;50.108;8.640;2023-04-25T03:23:41;8.20;99.90
26342;DHT22;14054;50.108;8.640;2023-04-25T03:26:06;8.20;99.90
26342;DHT22;14054;50.108;8.640;2023-04-25T03:28:32;8.20;99.90
26342;DHT22;14054;50.108;8.640;2023-04-25T03:30:57;8.20;99.90
26342;DHT22;14054;50.108;8.640;2023-04-25T03:33:23;8.20;99.90
26342;DHT22;14054;50.108;8.640;2023-04-25T03:35:48;8.20;99.90
26342;DHT22;14054;50.108;8.640;2023-04-25T03:38:15;8.20;99.90
26342;DHT22;14054;50.108;8.640;2023-04-25T03:40:40;8.00;99.90
26342;DHT22;14054;50.108;8.640;2023-04-25T03:43:06;8.20;99.90
26342;DHT22;14054;50.108;8.640;2023-04-25T03:45:31;8.10;99.90
26342;DHT22;14054;50.108;8.640;2023-04-25T03:47:57;8.10;99.90
26342;DHT22;14054;50.108;8.640;2023-04-25T03:50:24;8.10;99.90
26342;DHT22;14054;50.108;8.640;2023-04-25T03:52:50;8.10;99.90
26342;DHT22;14054;50.108;8.640;2023-04-25T03:55:15;8.10;99.90
26342;DHT22;14054;50.108;8.640;2023-04-25T03:57:40;8.10;99.90
26342;DHT22;14054;50.108;8.640;2023-04-25T04:00:06;8.10;99.90
26342;DHT22;14054;50.108;8.640;2023-04-25T04:02:32;8.10;99.90
26342;DHT22;14054;50.108;8.640;2023-04-25T04:04:59;8.10;99.90
26342;DHT22;14054;50.108;8.640;2023-04-25T04:07:24;8.00;99.90
26342;DHT22;14054;50.108;8.640;2023-04-25T04:09:50;8.00;99.90
26342;DHT22;14054;50.108;8.640;2023-04-25T04:12:15;8.00;99.90
26342;DHT22;14054;50.108;8.640;2023-04-25T04:14:41;8.00;99.90
26342;DHT22;14054;50.108;8.640;2023-04-25T04:17:06;7.80;99.90
26342;DHT22;14054;50.108;8.640;2023-04-25T04:19:32;7.80;99.90
26342;DHT22;14054;50.108;8.640;2023-04-25T04:21:57;7.80;99.90
26342;DHT22;14054;50.108;8.640;2023-04-25T04:24:23;7.70;99.90
26342;DHT22;14054;50.108;8.640;2023-04-25T04:26:49;7.70;99.90
26342;DHT22;14054;50.108;8.640;2023-04-25T04:29:15;7.80;99.90
26342;DHT22;14054;50.108;8.640;2023-04-25T04:31:49;7.80;99.90
26342;DHT22;14054;50.108;8.640;2023-04-25T04:34:16;7.90;99.90
26342;DHT22;14054;50.108;8.640;2023-04-25T04:36:41;7.80;99.90
26342;DHT22;14054;50.108;8.640;2023-04-25T04:39:07;7.80;99.90
26342;DHT22;14054;50.108;8.640;2023-04-25T04:41:34;7.80;99.90
26342;DHT22;14054;50.108;8.640;2023-04-25T04:43:59;7.80;99.90
26342;DHT22;14054;50.108;8.640;2023-04-25T04:46:26;7.70;99.90
26342;DHT22;14054;50.108;8.640;2023-04-25T04:48:53;7.70;99.90
26342;DHT22;14054;50.108;8.640;2023-04-25T04:51:18;7.80;99.90
26342;DHT22;14054;50.108;8.640;2023-04-25T04:53:44;7.70;99.90
26342;DHT22;14054;50.108;8.640;2023-04-25T04:56:09;7.70;99.90
26342;DHT22;14054;50.108;8.640;2023-04-25T04:58:35;7.70;99.90
26342;DHT22;14054;50.108;8.640;2023-04-25T05:01:01;7.60;99.90
26342;DHT22;14054;50.108;8.640;2023-04-25T05:03:27;7.60;99.90
26342;DHT22;14054;50.108;8.640;2023-04-25T05:05:52;7.60;99.90
26342;DHT22;14054;50.108;8.640;2023-04-25T05:08:18;7.70;99.90
26342;DHT22;14054;50.108;8.640;2023-04-25T05:10:43;7.70;99.90
26342;DHT22;14054;50.108;8.640;2023-04-25T05:13:09;7.80;99.90
26342;DHT22;14054;50.108;8.640;2023-04-25T05:15:34;7.90;99.90
26342;DHT22;14054;50.108;8.640;2023-04-25T05:17:59;7.90;99.90
26342;DHT22;14054;50.108;8.640;2023-04-25T05:20:25;7.90;99.90
26342;DHT22;14054;50.108;8.640;2023-04-25T05:22:51;8.10;99.90
26342;DHT22;14054;50.108;8.640;2023-04-25T05:25:16;8.10;99.90
26342;DHT22;14054;50.108;8.640;2023-04-25T05:27:41;8.10;99.90
26342;DHT22;14054;50.108;8.640;2023-04-25T05:30:07;8.20;99.90
26342;DHT22;14054;50.108;8.640;2023-04-25T05:32:34;8.20;99.90
26342;DHT22;14054;50.108;8.640;2023-04-25T05:34:59;8.30;99.90
26342;DHT22;14054;50.108;8.640;2023-04-25T05:37:25;8.30;99.90
26342;DHT22;14054;50.108;8.640;2023-04-25T05:39:50;8.40;99.90
26342;DHT22;14054;50.108;8.640;2023-04-25T05:42:16;8.30;99.90
26342;DHT22;14054;50.108;8.640;2023-04-25T05:44:41;8.30;99.90
26342;DHT22;14054;50.108;8.640;2023-04-25T05:47:07;8.40;99.90
26342;DHT22;14054;50.108;8.640;2023-04-25T05:49:32;8.50;99.90
26342;DHT22;14054;50.108;8.640;2023-04-25T05:51:57;8.60;99.90
26342;DHT22;14054;50.108;8.640;2023-04-25T05:54:23;8.60;99.90
26342;DHT22;14054;50.108;8.640;2023-04-25T05:56:48;8.70;99.90
26342;DHT22;14054;50.108;8.640;2023-04-25T05:59:14;8.70;99.90
26342;DHT22;14054;50.108;8.640;2023-04-25T06:01:39;8.70;99.90
26342;DHT22;14054;50.108;8.640;2023-04-25T06:04:05;8.60;99.90
26342;DHT22;14054;50.108;8.640;2023-04-25T06:06:30;8.70;99.90
26342;DHT22;14054;50.108;8.640;2023-04-25T06:08:56;8.70;99.90
26342;DHT22;14054;50.108;8.640;2023-04-25T06:11:22;8.60;99.90
26342;DHT22;14054;50.108;8.640;2023-04-25T06:13:47;8.70;99.90
26342;DHT22;14054;50.108;8.640;2023-04-25T06:16:13;8.70;99.90
26342;DHT22;14054;50.108;8.640;2023-04-25T06:18:38;8.70;99.90
26342;DHT22;14054;50.108;8.640;2023-04-25T06:21:04;8.80;99.90
26342;DHT22;14054;50.108;8.640;2023-04-25T06:23:29;8.90;99.90
26342;DHT22;14054;50.108;8.640;2023-04-25T06:25:55;9.00;99.90
26342;DHT22;14054;50.108;8.640;2023-04-25T06:28:20;9.20;99.90
26342;DHT22;14054;50.108;8.640;2023-04-25T06:30:47;9.20;99.90
26342;DHT22;14054;50.108;8.640;2023-04-25T06:33:12;9.30;99.90
26342;DHT22;14054;50.108;8.640;2023-04-25T06:35:38;9.60;99.90
26342;DHT22;14054;50.108;8.640;2023-04-25T06:38:03;9.60;99.90
26342;DHT22;14054;50.108;8.640;2023-04-25T06:40:29;9.60;99.90
26342;DHT22;14054;50.108;8.640;2023-04-25T06:42:54;9.40;99.90
26342;DHT22;14054;50.108;8.640;2023-04-25T06:45:20;9.60;99.90
26342;DHT22;14054;50.108;8.640;2023-04-25T06:47:45;9.60;99.90
26342;DHT22;14054;50.108;8.640;2023-04-25T06:50:10;9.70;99.90
26342;DHT22;14054;50.108;8.640;2023-04-25T06:52:36;9.90;99.90
26342;DHT22;14054;50.108;8.640;2023-04-25T06:55:01;10.10;99.90
26342;DHT22;14054;50.108;8.640;2023-04-25T06:57:27;10.10;99.90
26342;DHT22;14054;50.108;8.640;2023-04-25T06:59:53;10.30;99.90
26342;DHT22;14054;50.108;8.640;2023-04-25T07:02:18;10.50;99.90
26342;DHT22;14054;50.108;8.640;2023-04-25T07:04:44;10.50;99.90
26342;DHT22;14054;50.108;8.640;2023-04-25T07:07:11;10.40;99.90
26342;DHT22;14054;50.108;8.640;2023-04-25T07:09:36;10.40;99.90
26342;DHT22;14054;50.108;8.640;2023-04-25T07:12:02;10.30;99.90
26342;DHT22;14054;50.108;8.640;2023-04-25T07:14:27;10.10;99.90
26342;DHT22;14054;50.108;8.640;2023-04-25T07:16:53;10.10;99.90
26342;DHT22;14054;50.108;8.640;2023-04-25T07:19:21;10.10;99.90
26342;DHT22;14054;50.108;8.640;2023-04-25T07:21:46;10.10;99.90
26342;DHT22;14054;50.108;8.640;2023-04-25T07:24:11;10.00;99.90
26342;DHT22;14054;50.108;8.640;2023-04-25T07:26:37;10.00;99.90
26342;DHT22;14054;50.108;8.640;2023-04-25T07:29:02;10.20;99.90
26342;DHT22;14054;50.108;8.640;2023-04-25T07:31:28;10.30;99.90
26342;DHT22;14054;50.108;8.640;2023-04-25T07:33:53;10.00;99.90
26342;DHT22;14054;50.108;8.640;2023-04-25T07:36:18;10.00;99.90
26342;DHT22;14054;50.108;8.640;2023-04-25T07:38:44;9.70;99.90
26342;DHT22;14054;50.108;8.640;2023-04-25T07:41:09;9.80;99.90
26342;DHT22;14054;50.108;8.640;2023-04-25T07:43:35;10.00;99.90
26342;DHT22;14054;50.108;8.640;2023-04-25T07:46:00;10.00;99.90
26342;DHT22;14054;50.108;8.640;2023-04-25T07:48:26;10.10;99.90
26342;DHT22;14054;50.108;8.640;2023-04-25T07:50:51;10.40;99.90
26342;DHT22;14054;50.108;8.640;2023-04-25T07:53:17;10.50;99.90
26342;DHT22;14054;50.108;8.640;2023-04-25T07:55:43;10.60;99.90
26342;DHT22;14054;50.108;8.640;2023-04-25T07:58:10;10.70;99.90
26342;DHT22;14054;50.108;8.640;2023-04-25T08:00:35;10.70;99.90
26342;DHT22;14054;50.108;8.640;2023-04-25T08:03:01;11.20;99.90
26342;DHT22;14054;50.108;8.640;2023-04-25T08:05:26;11.20;99.90
26342;DHT22;14054;50.108;8.640;2023-04-25T08:07:52;11.70;99.90
26342;DHT22;14054;50.108;8.640;2023-04-25T08:10:17;12.00;99.90
26342;DHT22;14054;50.108;8.640;2023-04-25T08:12:43;11.90;99.90
26342;DHT22;14054;50.108;8.640;2023-04-25T08:15:08;12.10;99.90
26342;DHT22;14054;50.108;8.640;2023-04-25T08:17:34;12.10;99.90
26342;DHT22;14054;50.108;8.640;2023-04-25T08:19:59;11.80;99.90
26342;DHT22;14054;50.108;8.640;2023-04-25T08:22:24;11.90;99.90
26342;DHT22;14054;50.108;8.640;2023-04-25T08:24:50;12.20;99.90
26342;DHT22;14054;50.108;8.640;2023-04-25T08:27:15;12.20;99.90
26342;DHT22;14054;50.108;8.640;2023-04-25T08:29:41;12.00;99.90
26342;DHT22;14054;50.108;8.640;2023-04-25T08:32:07;11.80;99.90
26342;DHT22;14054;50.108;8.640;2023-04-25T08:34:32;11.20;99.90
26342;DHT22;14054;50.108;8.640;2023-04-25T08:36:58;11.10;99.90
26342;DHT22;14054;50.108;8.640;2023-04-25T08:39:23;11.00;99.90
26342;DHT22;14054;50.108;8.640;2023-04-25T08:41:48;11.20;99.90
26342;DHT22;14054;50.108;8.640;2023-04-25T08:44:14;11.60;99.90
26342;DHT22;14054;50.108;8.640;2023-04-25T08:46:40;11.90;99.90
26342;DHT22;14054;50.108;8.640;2023-04-25T08:49:06;11.60;99.90
26342;DHT22;14054;50.108;8.640;2023-04-25T08:51:32;11.50;99.90
26342;DHT22;14054;50.108;8.640;2023-04-25T08:54:01;12.10;99.90
26342;DHT22;14054;50.108;8.640;2023-04-25T08:56:31;12.40;99.90
26342;DHT22;14054;50.108;8.640;2023-04-25T08:59:00;12.50;99.90
26342;DHT22;14054;50.108;8.640;2023-04-25T09:01:26;12.50;99.90
26342;DHT22;14054;50.108;8.640;2023-04-25T09:03:51;12.00;99.90
26342;DHT22;14054;50.108;8.640;2023-04-25T09:06:17;11.80;99.90
26342;DHT22;14054;50.108;8.640;2023-04-25T09:08:43;12.30;99.90
26342;DHT22;14054;50.108;8.640;2023-04-25T09:11:08;12.50;99.90
26342;DHT22;14054;50.108;8.640;2023-04-25T09:13:34;12.40;99.90
26342;DHT22;14054;50.108;8.640;2023-04-25T09:15:59;12.60;99.90
26342;DHT22;14054;50.108;8.640;2023-04-25T09:18:26;12.80;99.90
26342;DHT22;14054;50.108;8.640;2023-04-25T09:20:52;13.00;99.90
26342;DHT22;14054;50.108;8.640;2023-04-25T09:23:18;13.50;99.90
26342;DHT22;14054;50.108;8.640;2023-04-25T09:25:46;13.20;99.90
26342;DHT22;14054;50.108;8.640;2023-04-25T09:28:12;13.00;99.90
26342;DHT22;14054;50.108;8.640;2023-04-25T09:30:37;12.90;99.90
26342;DHT22;14054;50.108;8.640;2023-04-25T09:33:06;12.60;99.90
26342;DHT22;14054;50.108;8.640;2023-04-25T09:35:50;12.50;99.90
26342;DHT22;14054;50.108;8.640;2023-04-25T09:38:20;12.30;99.90
26342;DHT22;14054;50.108;8.640;2023-04-25T09:40:46;12.60;99.90
26342;DHT22;14054;50.108;8.640;2023-04-25T09:43:19;12.60;99.90
26342;DHT22;14054;50.108;8.640;2023-04-25T09:45:45;12.60;99.90
26342;DHT22;14054;50.108;8.640;2023-04-25T09:48:19;12.40;99.90
26342;DHT22;14054;50.108;8.640;2023-04-25T09:51:03;12.40;99.90
26342;DHT22;14054;50.108;8.640;2023-04-25T09:53:29;12.70;99.90
26342;DHT22;14054;50.108;8.640;2023-04-25T09:55:55;13.40;99.90
26342;DHT22;14054;50.108;8.640;2023-04-25T09:58:21;13.20;99.90
26342;DHT22;14054;50.108;8.640;2023-04-25T10:00:49;12.90;99.90
26342;DHT22;14054;50.108;8.640;2023-04-25T10:03:15;12.80;99.90
26342;DHT22;14054;50.108;8.640;2023-04-25T10:05:40;12.80;99.90
26342;DHT22;14054;50.108;8.640;2023-04-25T10:08:06;12.90;99.90
26342;DHT22;14054;50.108;8.640;2023-04-25T10:10:33;12.60;99.90
26342;DHT22;14054;50.108;8.640;2023-04-25T10:13:04;12.50;99.90
26342;DHT22;14054;50.108;8.640;2023-04-25T10:15:31;12.40;99.90
26342;DHT22;14054;50.108;8.640;2023-04-25T10:17:58;12.60;99.90
26342;DHT22;14054;50.108;8.640;2023-04-25T10:20:23;13.10;99.90
26342;DHT22;14054;50.108;8.640;2023-04-25T10:22:49;13.30;99.90
26342;DHT22;14054;50.108;8.640;2023-04-25T10:25:19;13.10;99.90
26342;DHT22;14054;50.108;8.640;2023-04-25T10:27:44;13.00;99.90
26342;DHT22;14054;50.108;8.640;2023-04-25T10:30:13;13.00;99.90
26342;DHT22;14054;50.108;8.640;2023-04-25T10:32:41;12.90;99.90
26342;DHT22;14054;50.108;8.640;2023-04-25T10:35:15;12.80;99.90
26342;DHT22;14054;50.108;8.640;2023-04-25T10:37:56;12.50;99.90
26342;DHT22;14054;50.108;8.640;2023-04-25T10:40:22;12.40;99.90
26342;DHT22;14054;50.108;8.640;2023-04-25T10:42:48;12.30;99.90
26342;DHT22;14054;50.108;8.640;2023-04-25T10:45:13;11.60;99.90
26342;DHT22;14054;50.108;8.640;2023-04-25T10:47:48;11.30;99.90
26342;DHT22;14054;50.108;8.640;2023-04-25T10:50:14;11.20;99.90
26342;DHT22;14054;50.108;8.640;2023-04-25T10:52:40;11.10;99.90
26342;DHT22;14054;50.108;8.640;2023-04-25T10:55:06;11.20;99.90
26342;DHT22;14054;50.108;8.640;2023-04-25T11:00:10;11.00;99.90
26342;DHT22;14054;50.108;8.640;2023-04-25T11:02:37;11.30;99.90
26342;DHT22;14054;50.108;8.640;2023-04-25T11:05:03;11.50;99.90
26342;DHT22;14054;50.108;8.640;2023-04-25T11:07:31;11.70;99.90
26342;DHT22;14054;50.108;8.640;2023-04-25T11:10:00;12.00;99.90
26342;DHT22;14054;50.108;8.640;2023-04-25T11:12:26;12.30;99.90
26342;DHT22;14054;50.108;8.640;2023-04-25T11:14:57;11.90;99.90
26342;DHT22;14054;50.108;8.640;2023-04-25T11:17:24;12.10;99.90
26342;DHT22;14054;50.108;8.640;2023-04-25T11:19:50;12.10;99.90
26342;DHT22;14054;50.108;8.640;2023-04-25T11:22:15;12.10;99.90
26342;DHT22;14054;50.108;8.640;2023-04-25T11:24:41;11.90;99.90
26342;DHT22;14054;50.108;8.640;2023-04-25T11:27:06;11.50;99.90
26342;DHT22;14054;50.108;8.640;2023-04-25T11:29:32;11.40;99.90
26342;DHT22;14054;50.108;8.640;2023-04-25T11:32:00;11.40;99.90
26342;DHT22;14054;50.108;8.640;2023-04-25T11:34:29;11.40;99.90
26342;DHT22;14054;50.108;8.640;2023-04-25T11:36:58;12.30;99.90
26342;DHT22;14054;50.108;8.640;2023-04-25T11:39:24;12.70;99.90
26342;DHT22;14054;50.108;8.640;2023-04-25T11:41:50;12.90;99.90
26342;DHT22;14054;50.108;8.640;2023-04-25T11:44:16;13.00;99.90
26342;DHT22;14054;50.108;8.640;2023-04-25T11:46:42;13.60;99.90
26342;DHT22;14054;50.108;8.640;2023-04-25T11:49:07;13.90;99.90
26342;DHT22;14054;50.108;8.640;2023-04-25T11:51:42;13.80;99.90
26342;DHT22;14054;50.108;8.640;2023-04-25T11:54:08;13.40;99.90
26342;DHT22;14054;50.108;8.640;2023-04-25T11:56:34;13.00;99.90
26342;DHT22;14054;50.108;8.640;2023-04-25T11:59:00;13.20;99.90
26342;DHT22;14054;50.108;8.640;2023-04-25T12:01:30;13.10;99.90
26342;DHT22;14054;50.108;8.640;2023-04-25T12:03:57;13.00;99.90
26342;DHT22;14054;50.108;8.640;2023-04-25T12:06:26;13.00;99.90
26342;DHT22;14054;50.108;8.640;2023-04-25T12:09:01;13.00;99.90
26342;DHT22;14054;50.108;8.640;2023-04-25T12:11:29;13.70;99.90
26342;DHT22;14054;50.108;8.640;2023-04-25T12:13:55;14.20;99.90
26342;DHT22;14054;50.108;8.640;2023-04-25T12:16:20;13.70;99.90
26342;DHT22;14054;50.108;8.640;2023-04-25T12:18:45;13.30;99.90
26342;DHT22;14054;50.108;8.640;2023-04-25T12:21:11;13.50;99.90
26342;DHT22;14054;50.108;8.640;2023-04-25T12:23:38;13.00;99.90
26342;DHT22;14054;50.108;8.640;2023-04-25T12:26:03;12.70;99.90
26342;DHT22;14054;50.108;8.640;2023-04-25T12:28:29;12.30;99.90
26342;DHT22;14054;50.108;8.640;2023-04-25T12:30:59;12.20;99.90
26342;DHT22;14054;50.108;8.640;2023-04-25T12:33:25;12.10;99.90
26342;DHT22;14054;50.108;8.640;2023-04-25T12:35:52;12.10;99.90
26342;DHT22;14054;50.108;8.640;2023-04-25T12:38:27;12.00;99.90
26342;DHT22;14054;50.108;8.640;2023-04-25T12:40:54;12.00;99.90
26342;DHT22;14054;50.108;8.640;2023-04-25T12:43:20;12.00;99.90
26342;DHT22;14054;50.108;8.640;2023-04-25T12:45:52;11.80;99.90
26342;DHT22;14054;50.108;8.640;2023-04-25T12:48:18;11.80;99.90
26342;DHT22;14054;50.108;8.640;2023-04-25T12:50:44;12.20;99.90
26342;DHT22;14054;50.108;8.640;2023-04-25T12:53:10;13.00;99.90
26342;DHT22;14054;50.108;8.640;2023-04-25T12:55:36;13.50;99.90
26342;DHT22;14054;50.108;8.640;2023-04-25T12:58:02;14.30;99.90
26342;DHT22;14054;50.108;8.640;2023-04-25T13:00:28;14.20;99.10
26342;DHT22;14054;50.108;8.640;2023-04-25T13:02:54;13.90;99.60
26342;DHT22;14054;50.108;8.640;2023-04-25T13:05:19;13.90;99.40
26342;DHT22;14054;50.108;8.640;2023-04-25T13:07:45;13.70;99.90
26342;DHT22;14054;50.108;8.640;2023-04-25T13:10:10;13.90;99.90
26342;DHT22;14054;50.108;8.640;2023-04-25T13:12:36;14.80;98.60
26342;DHT22;14054;50.108;8.640;2023-04-25T13:15:02;16.00;93.60
26342;DHT22;14054;50.108;8.640;2023-04-25T13:17:27;16.20;90.40
26342;DHT22;14054;50.108;8.640;2023-04-25T13:19:53;14.90;92.10
26342;DHT22;14054;50.108;8.640;2023-04-25T13:22:18;14.00;93.90
26342;DHT22;14054;50.108;8.640;2023-04-25T13:24:45;13.60;95.40
26342;DHT22;14054;50.108;8.640;2023-04-25T13:27:11;13.70;95.70
26342;DHT22;14054;50.108;8.640;2023-04-25T13:29:36;13.70;95.60
26342;DHT22;14054;50.108;8.640;2023-04-25T13:32:03;14.30;94.40
26342;DHT22;14054;50.108;8.640;2023-04-25T13:34:29;15.70;92.10
26342;DHT22;14054;50.108;8.640;2023-04-25T13:36:54;18.10;84.90
26342;DHT22;14054;50.108;8.640;2023-04-25T13:39:20;18.60;73.10
26342;DHT22;14054;50.108;8.640;2023-04-25T13:41:45;18.80;71.60
26342;DHT22;14054;50.108;8.640;2023-04-25T13:44:10;17.60;73.80
26342;DHT22;14054;50.108;8.640;2023-04-25T13:46:36;18.50;69.30
26342;DHT22;14054;50.108;8.640;2023-04-25T13:49:02;19.70;64.70
26342;DHT22;14054;50.108;8.640;2023-04-25T13:51:28;18.90;64.10
26342;DHT22;14054;50.108;8.640;2023-04-25T13:53:53;17.20;70.70
26342;DHT22;14054;50.108;8.640;2023-04-25T13:56:19;16.10;75.20
26342;DHT22;14054;50.108;8.640;2023-04-25T13:58:48;15.50;80.90
26342;DHT22;14054;50.108;8.640;2023-04-25T14:01:14;15.10;82.00
26342;DHT22;14054;50.108;8.640;2023-04-25T14:03:39;14.80;83.20
26342;DHT22;14054;50.108;8.640;2023-04-25T14:06:05;14.30;85.10
26342;DHT22;14054;50.108;8.640;2023-04-25T14:08:30;14.10;86.20
26342;DHT22;14054;50.108;8.640;2023-04-25T14:10:56;14.30;86.80
26342;DHT22;14054;50.108;8.640;2023-04-25T14:13:21;14.30;85.60
26342;DHT22;14054;50.108;8.640;2023-04-25T14:15:48;14.00;85.60
26342;DHT22;14054;50.108;8.640;2023-04-25T14:18:15;14.60;85.70
26342;DHT22;14054;50.108;8.640;2023-04-25T14:20:40;14.60;83.10
26342;DHT22;14054;50.108;8.640;2023-04-25T14:23:06;14.60;84.40
26342;DHT22;14054;50.108;8.640;2023-04-25T14:25:31;14.20;84.90
26342;DHT22;14054;50.108;8.640;2023-04-25T14:27:57;13.80;86.40
26342;DHT22;14054;50.108;8.640;2023-04-25T14:30:22;13.80;90.00
26342;DHT22;14054;50.108;8.640;2023-04-25T14:32:48;13.80;89.40
26342;DHT22;14054;50.108;8.640;2023-04-25T14:35:14;13.80;88.30
26342;DHT22;14054;50.108;8.640;2023-04-25T14:37:40;13.60;88.30
26342;DHT22;14054;50.108;8.640;2023-04-25T14:40:05;13.60;89.00
26342;DHT22;14054;50.108;8.640;2023-04-25T14:42:32;13.60;90.10
26342;DHT22;14054;50.108;8.640;2023-04-25T14:44:59;13.50;90.10
26342;DHT22;14054;50.108;8.640;2023-04-25T14:47:24;13.30;87.90
26342;DHT22;14054;50.108;8.640;2023-04-25T14:49:50;13.00;89.10
26342;DHT22;14054;50.108;8.640;2023-04-25T14:52:19;12.70;89.40
26342;DHT22;14054;50.108;8.640;2023-04-25T14:54:45;12.60;89.50
26342;DHT22;14054;50.108;8.640;2023-04-25T14:57:11;12.60;90.00
26342;DHT22;14054;50.108;8.640;2023-04-25T14:59:36;12.70;90.30
26342;DHT22;14054;50.108;8.640;2023-04-25T15:02:02;12.70;90.80
26342;DHT22;14054;50.108;8.640;2023-04-25T15:04:27;12.80;91.70
26342;DHT22;14054;50.108;8.640;2023-04-25T15:06:53;12.90;91.80
26342;DHT22;14054;50.108;8.640;2023-04-25T15:09:18;12.90;91.90
26342;DHT22;14054;50.108;8.640;2023-04-25T15:11:44;12.80;92.30
26342;DHT22;14054;50.108;8.640;2023-04-25T15:14:10;12.80;93.00
26342;DHT22;14054;50.108;8.640;2023-04-25T15:16:36;12.50;93.40
26342;DHT22;14054;50.108;8.640;2023-04-25T15:19:01;12.20;92.90
26342;DHT22;14054;50.108;8.640;2023-04-25T15:21:29;12.10;94.30
26342;DHT22;14054;50.108;8.640;2023-04-25T15:23:56;12.00;95.30
26342;DHT22;14054;50.108;8.640;2023-04-25T15:26:21;12.10;95.90
26342;DHT22;14054;50.108;8.640;2023-04-25T15:28:47;12.20;96.70
26342;DHT22;14054;50.108;8.640;2023-04-25T15:31:13;12.20;96.80
26342;DHT22;14054;50.108;8.640;2023-04-25T15:33:39;12.50;97.10